sensor_id;sensor_type;location;lat;lon;timestamp;pressure;altitude;pressure_sealevel;temperature;humidity
63006;BME280;53704;52.532;6.426;2023-02-03T00:00:21;102248.06;;;6.96;100.00
63006;BME280;53704;52.532;6.426;2023-02-03T00:02:47;102245.06;;;6.87;100.00
63006;BME280;53704;52.532;6.426;2023-02-03T00:05:12;102237.81;;;6.90;100.00
63006;BME280;53704;52.532;6.426;2023-02-03T00:07:38;102237.81;;;6.90;100.00
63006;BME280;53704;52.532;6.426;2023-02-03T00:10:05;102245.63;;;6.93;100.00
63006;BME280;53704;52.532;6.426;2023-02-03T00:12:31;102251.41;;;6.86;100.00
63006;BME280;53704;52.532;6.426;2023-02-03T00:14:56;102243.16;;;6.90;100.00
63006;BME280;53704;52.532;6.426;2023-02-03T00:17:22;102251.50;;;6.85;100.00
63006;BME280;53704;52.532;6.426;2023-02-03T00:19:47;102241.53;;;6.87;100.00
63006;BME280;53704;52.532;6.426;2023-02-03T00:22:14;102264.38;;;6.93;100.00
63006;BME280;53704;52.532;6.426;2023-02-03T00:24:39;102270.13;;;6.86;100.00
63006;BME280;53704;52.532;6.426;2023-02-03T00:27:05;102286.31;;;6.98;100.00
63006;BME280;53704;52.532;6.426;2023-02-03T00:29:30;102288.22;;;6.96;100.00
63006;BME280;53704;52.532;6.426;2023-02-03T00:31:55;102279.34;;;6.95;100.00
63006;BME280;53704;52.532;6.426;2023-02-03T00:34:26;102269.16;;;6.87;100.00
63006;BME280;53704;52.532;6.426;2023-02-03T00:36:52;102258.53;;;6.86;100.00
63006;BME280;53704;52.532;6.426;2023-02-03T00:39:17;102262.63;;;6.92;100.00
63006;BME280;53704;52.532;6.426;2023-02-03T00:41:43;102271.41;;;6.94;100.00
63006;BME280;53704;52.532;6.426;2023-02-03T00:44:08;102269.94;;;6.90;100.00
63006;BME280;53704;52.532;6.426;2023-02-03T00:46:34;102281.06;;;6.96;100.00
63006;BME280;53704;52.532;6.426;2023-02-03T00:49:03;102274.97;;;6.94;100.00
63006;BME280;53704;52.532;6.426;2023-02-03T00:51:29;102278.38;;;6.96;100.00
63006;BME280;53704;52.532;6.426;2023-02-03T00:53:54;102269.28;;;6.99;100.00
63006;BME280;53704;52.532;6.426;2023-02-03T00:56:19;102269.16;;;7.00;100.00
63006;BME280;53704;52.532;6.426;2023-02-03T00:58:45;102264.59;;;7.02;100.00
63006;BME280;53704;52.532;6.426;2023-02-03T01:01:10;102260.28;;;7.00;100.00
63006;BME280;53704;52.532;6.426;2023-02-03T01:03:36;102255.88;;;6.99;100.00
63006;BME280;53704;52.532;6.426;2023-02-03T01:06:14;102247.53;;;7.03;100.00
63006;BME280;53704;52.532;6.426;2023-02-03T01:08:40;102255.69;;;7.02;100.00
63006;BME280;53704;52.532;6.426;2023-02-03T01:11:10;102249.69;;;6.98;100.00
63006;BME280;53704;52.532;6.426;2023-02-03T01:13:36;102255.69;;;7.02;100.00
63006;BME280;53704;52.532;6.426;2023-02-03T01:16:05;102253.97;;;7.01;100.00
63006;BME280;53704;52.532;6.426;2023-02-03T01:18:31;102243.47;;;6.98;100.00
63006;BME280;53704;52.532;6.426;2023-02-03T01:20:56;102238.22;;;6.96;100.00
63006;BME280;53704;52.532;6.426;2023-02-03T01:23:22;102217.97;;;7.05;100.00
63006;BME280;53704;52.532;6.426;2023-02-03T01:25:47;102204.47;;;7.06;100.00
63006;BME280;53704;52.532;6.426;2023-02-03T01:28:12;102203.09;;;7.01;100.00
63006;BME280;53704;52.532;6.426;2023-02-03T01:30:38;102195.81;;;7.03;100.00
63006;BME280;53704;52.532;6.426;2023-02-03T01:33:03;102204.59;;;7.05;100.00
63006;BME280;53704;52.532;6.426;2023-02-03T01:35:29;102211.88;;;7.03;100.00
63006;BME280;53704;52.532;6.426;2023-02-03T01:37:54;102218.19;;;7.02;100.00
63006;BME280;53704;52.532;6.426;2023-02-03T01:40:20;102209.00;;;7.06;100.00
63006;BME280;53704;52.532;6.426;2023-02-03T01:42:45;102185.00;;;7.04;100.00
63006;BME280;53704;52.532;6.426;2023-02-03T01:45:11;102168.19;;;7.02;100.00
63006;BME280;53704;52.532;6.426;2023-02-03T01:47:45;102172.34;;;7.06;100.00
63006;BME280;53704;52.532;6.426;2023-02-03T01:50:23;102164.63;;;7.02;100.00
63006;BME280;53704;52.532;6.426;2023-02-03T01:53:25;102188.72;;;7.02;100.00
63006;BME280;53704;52.532;6.426;2023-02-03T01:55:46;102183.28;;;7.03;100.00
63006;BME280;53704;52.532;6.426;2023-02-03T01:58:19;102196.66;;;7.03;100.00
63006;BME280;53704;52.532;6.426;2023-02-03T02:00:47;102217.25;;;7.03;100.00
63006;BME280;53704;52.532;6.426;2023-02-03T02:03:14;102218.19;;;7.02;100.00
63006;BME280;53704;52.532;6.426;2023-02-03T02:05:49;102201.16;;;7.03;100.00
63006;BME280;53704;52.532;6.426;2023-02-03T02:08:18;102198.50;;;7.03;100.00
63006;BME280;53704;52.532;6.426;2023-02-03T02:10:47;102198.69;;;7.00;100.00
63006;BME280;53704;52.532;6.426;2023-02-03T02:13:13;102197.31;;;7.07;100.00
63006;BME280;53704;52.532;6.426;2023-02-03T02:16:16;102186.16;;;7.00;100.00
63006;BME280;53704;52.532;6.426;2023-02-03T02:41:28;102168.59;;;7.09;100.00
63006;BME280;53704;52.532;6.426;2023-02-03T02:46:52;102152.53;;;7.09;100.00
63006;BME280;53704;52.532;6.426;2023-02-03T02:49:22;102154.25;;;7.10;100.00
63006;BME280;53704;52.532;6.426;2023-02-03T02:51:50;102156.72;;;7.13;100.00
63006;BME280;53704;52.532;6.426;2023-02-03T02:54:20;102167.44;;;7.13;100.00
63006;BME280;53704;52.532;6.426;2023-02-03T02:56:53;102166.13;;;7.19;100.00
63006;BME280;53704;52.532;6.426;2023-02-03T02:59:20;102168.91;;;7.17;100.00
63006;BME280;53704;52.532;6.426;2023-02-03T03:01:45;102179.84;;;7.14;100.00
63006;BME280;53704;52.532;6.426;2023-02-03T03:04:12;102186.72;;;7.18;100.00
63006;BME280;53704;52.532;6.426;2023-02-03T03:06:46;102170.44;;;7.21;100.00
63006;BME280;53704;52.532;6.426;2023-02-03T03:09:21;102170.53;;;7.20;100.00
63006;BME280;53704;52.532;6.426;2023-02-03T03:11:59;102169.56;;;7.21;100.00
63006;BME280;53704;52.532;6.426;2023-02-03T03:14:27;102162.38;;;7.21;100.00
63006;BME280;53704;52.532;6.426;2023-02-03T03:17:03;102157.25;;;7.18;100.00
63006;BME280;53704;52.532;6.426;2023-02-03T03:19:38;102152.41;;;7.23;100.00
63006;BME280;53704;52.532;6.426;2023-02-03T03:22:08;102139.25;;;7.20;100.00
63006;BME280;53704;52.532;6.426;2023-02-03T03:24:41;102139.25;;;7.20;100.00
63006;BME280;53704;52.532;6.426;2023-02-03T03:27:14;102145.13;;;7.25;100.00
63006;BME280;53704;52.532;6.426;2023-02-03T03:29:46;102163.97;;;7.24;100.00
63006;BME280;53704;52.532;6.426;2023-02-03T03:32:14;102166.66;;;7.24;100.00
63006;BME280;53704;52.532;6.426;2023-02-03T03:34:40;102127.56;;;7.21;100.00
63006;BME280;53704;52.532;6.426;2023-02-03T03:37:12;102126.03;;;7.30;100.00
63006;BME280;53704;52.532;6.426;2023-02-03T03:44:56;102121.00;;;7.25;100.00
63006;BME280;53704;52.532;6.426;2023-02-03T03:47:29;102110.28;;;7.25;100.00
63006;BME280;53704;52.532;6.426;2023-02-03T03:49:57;102124.56;;;7.26;100.00
63006;BME280;53704;52.532;6.426;2023-02-03T03:52:29;102141.25;;;7.30;100.00
63006;BME280;53704;52.532;6.426;2023-02-03T03:54:58;102127.66;;;7.33;100.00
63006;BME280;53704;52.532;6.426;2023-02-03T03:58:11;102137.41;;;7.34;100.00
63006;BME280;53704;52.532;6.426;2023-02-03T04:00:19;102133.97;;;7.32;100.00
63006;BME280;53704;52.532;6.426;2023-02-03T04:02:50;102140.09;;;7.34;100.00
63006;BME280;53704;52.532;6.426;2023-02-03T04:05:17;102148.56;;;7.28;100.00
63006;BME280;53704;52.532;6.426;2023-02-03T04:07:44;102144.56;;;7.33;100.00
63006;BME280;53704;52.532;6.426;2023-02-03T04:10:30;102144.47;;;7.35;100.00
63006;BME280;53704;52.532;6.426;2023-02-03T04:12:56;102129.38;;;7.34;100.00
63006;BME280;53704;52.532;6.426;2023-02-03T04:15:22;102120.47;;;7.33;100.00
63006;BME280;53704;52.532;6.426;2023-02-03T04:17:47;102139.88;;;7.37;100.00
63006;BME280;53704;52.532;6.426;2023-02-03T04:20:13;102146.06;;;7.37;100.00
63006;BME280;53704;52.532;6.426;2023-02-03T04:22:39;102125.25;;;7.41;100.00
63006;BME280;53704;52.532;6.426;2023-02-03T04:25:08;102129.00;;;7.38;100.00
63006;BME280;53704;52.532;6.426;2023-02-03T04:27:34;102126.69;;;7.34;100.00
63006;BME280;53704;52.532;6.426;2023-02-03T04:30:00;102121.97;;;7.37;100.00
63006;BME280;53704;52.532;6.426;2023-02-03T04:32:26;102112.94;;;7.38;100.00
63006;BME280;53704;52.532;6.426;2023-02-03T04:34:52;102113.31;;;7.34;100.00
63006;BME280;53704;52.532;6.426;2023-02-03T04:37:17;102120.56;;;7.32;100.00
63006;BME280;53704;52.532;6.426;2023-02-03T04:39:43;102126.47;;;7.37;100.00
63006;BME280;53704;52.532;6.426;2023-02-03T04:42:08;102127.22;;;7.39;100.00
63006;BME280;53704;52.532;6.426;2023-02-03T04:44:34;102119.91;;;7.41;100.00
63006;BME280;53704;52.532;6.426;2023-02-03T04:46:59;102134.84;;;7.32;100.00
63006;BME280;53704;52.532;6.426;2023-02-03T04:49:24;102122.19;;;7.34;100.00
63006;BME280;53704;52.532;6.426;2023-02-03T04:51:50;102127.94;;;7.41;100.00
63006;BME280;53704;52.532;6.426;2023-02-03T04:54:16;102123.25;;;7.32;100.00
63006;BME280;53704;52.532;6.426;2023-02-03T04:56:41;102123.66;;;7.38;100.00
63006;BME280;53704;52.532;6.426;2023-02-03T04:59:07;102122.59;;;7.41;100.00
63006;BME280;53704;52.532;6.426;2023-02-03T05:01:33;102119.91;;;7.41;100.00
63006;BME280;53704;52.532;6.426;2023-02-03T05:03:58;102123.66;;;7.38;100.00
63006;BME280;53704;52.532;6.426;2023-02-03T05:06:25;102123.44;;;7.41;100.00
63006;BME280;53704;52.532;6.426;2023-02-03T05:08:51;102116.28;;;7.42;100.00
63006;BME280;53704;52.532;6.426;2023-02-03T05:11:17;102127.44;;;7.36;100.00
63006;BME280;53704;52.532;6.426;2023-02-03T05:13:42;102136.09;;;7.39;100.00
63006;BME280;53704;52.532;6.426;2023-02-03T05:16:08;102133.53;;;7.38;100.00
63006;BME280;53704;52.532;6.426;2023-02-03T05:18:33;102141.34;;;7.41;100.00
63006;BME280;53704;52.532;6.426;2023-02-03T05:20:59;102133.31;;;7.41;100.00
63006;BME280;53704;52.532;6.426;2023-02-03T05:23:24;102129.25;;;7.35;100.00
63006;BME280;53704;52.532;6.426;2023-02-03T05:25:50;102138.66;;;7.41;100.00
63006;BME280;53704;52.532;6.426;2023-02-03T05:28:15;102145.97;;;7.39;100.00
63006;BME280;53704;52.532;6.426;2023-02-03T05:30:40;102137.81;;;7.40;100.00
63006;BME280;53704;52.532;6.426;2023-02-03T05:33:06;102143.19;;;7.40;100.00
63006;BME280;53704;52.532;6.426;2023-02-03T05:35:31;102129.78;;;7.40;100.00
63006;BME280;53704;52.532;6.426;2023-02-03T05:37:57;102136.81;;;7.41;100.00
63006;BME280;53704;52.532;6.426;2023-02-03T05:40:23;102133.72;;;7.48;100.00
63006;BME280;53704;52.532;6.426;2023-02-03T05:43:08;102132.13;;;7.45;100.00
63006;BME280;53704;52.532;6.426;2023-02-03T05:45:34;102127.00;;;7.42;100.00
63006;BME280;53704;52.532;6.426;2023-02-03T05:47:59;102135.75;;;7.44;100.00
63006;BME280;53704;52.532;6.426;2023-02-03T05:50:30;102133.19;;;7.42;100.00
63006;BME280;53704;52.532;6.426;2023-02-03T05:52:59;102127.94;;;7.41;100.00
63006;BME280;53704;52.532;6.426;2023-02-03T05:55:26;102130.63;;;7.41;100.00
63006;BME280;53704;52.532;6.426;2023-02-03T05:57:51;102135.13;;;7.40;100.00
63006;BME280;53704;52.532;6.426;2023-02-03T06:00:17;102118.06;;;7.41;100.00
63006;BME280;53704;52.532;6.426;2023-02-03T06:02:43;102115.50;;;7.40;100.00
63006;BME280;53704;52.532;6.426;2023-02-03T06:05:08;102118.28;;;7.38;100.00
63006;BME280;53704;52.532;6.426;2023-02-03T06:07:34;102125.25;;;7.41;100.00
63006;BME280;53704;52.532;6.426;2023-02-03T06:09:59;102135.03;;;7.42;100.00
63006;BME280;53704;52.532;6.426;2023-02-03T06:12:25;102111.03;;;7.40;100.00
63006;BME280;53704;52.532;6.426;2023-02-03T06:14:50;102118.44;;;7.37;100.00
63006;BME280;53704;52.532;6.426;2023-02-03T06:17:15;102131.94;;;7.35;100.00
63006;BME280;53704;52.532;6.426;2023-02-03T06:19:41;102125.25;;;7.41;100.00
63006;BME280;53704;52.532;6.426;2023-02-03T06:22:07;102127.94;;;7.41;100.00
63006;BME280;53704;52.532;6.426;2023-02-03T06:24:32;102131.47;;;7.41;100.00
63006;BME280;53704;52.532;6.426;2023-02-03T06:26:58;102125.38;;;7.39;100.00
63006;BME280;53704;52.532;6.426;2023-02-03T06:29:23;102137.72;;;7.42;100.00
63006;BME280;53704;52.532;6.426;2023-02-03T06:31:49;102139.50;;;7.41;100.00
63006;BME280;53704;52.532;6.426;2023-02-03T06:34:14;102138.66;;;7.41;100.00
63006;BME280;53704;52.532;6.426;2023-02-03T06:36:40;102119.91;;;7.41;100.00
63006;BME280;53704;52.532;6.426;2023-02-03T06:39:05;102128.16;;;7.38;100.00
63006;BME280;53704;52.532;6.426;2023-02-03T06:41:31;102120.34;;;7.35;100.00
63006;BME280;53704;52.532;6.426;2023-02-03T06:43:57;102122.81;;;7.38;100.00
63006;BME280;53704;52.532;6.426;2023-02-03T06:46:22;102133.31;;;7.41;100.00
63006;BME280;53704;52.532;6.426;2023-02-03T06:48:52;102128.28;;;7.36;100.00
63006;BME280;53704;52.532;6.426;2023-02-03T06:51:17;102137.94;;;7.39;100.00
63006;BME280;53704;52.532;6.426;2023-02-03T06:53:43;102123.66;;;7.38;100.00
63006;BME280;53704;52.532;6.426;2023-02-03T06:56:08;102127.44;;;7.36;100.00
63006;BME280;53704;52.532;6.426;2023-02-03T06:58:34;102116.19;;;7.31;100.00
63006;BME280;53704;52.532;6.426;2023-02-03T07:00:59;102132.78;;;7.36;100.00
63006;BME280;53704;52.532;6.426;2023-02-03T07:03:24;102131.50;;;7.29;100.00
63006;BME280;53704;52.532;6.426;2023-02-03T07:05:50;102126.91;;;7.31;100.00
63006;BME280;53704;52.532;6.426;2023-02-03T07:08:15;102126.38;;;7.25;100.00
63006;BME280;53704;52.532;6.426;2023-02-03T07:10:41;102129.03;;;7.25;100.00
63006;BME280;53704;52.532;6.426;2023-02-03T07:13:06;102135.91;;;7.30;100.00
63006;BME280;53704;52.532;6.426;2023-02-03T07:15:32;102142.31;;;7.27;100.00
63006;BME280;53704;52.532;6.426;2023-02-03T07:17:57;102149.53;;;7.27;100.00
63006;BME280;53704;52.532;6.426;2023-02-03T07:20:24;102131.72;;;7.25;100.00
63006;BME280;53704;52.532;6.426;2023-02-03T07:22:56;102130.75;;;7.27;100.00
63006;BME280;53704;52.532;6.426;2023-02-03T07:25:22;102135.91;;;7.30;100.00
63006;BME280;53704;52.532;6.426;2023-02-03T07:27:48;102152.09;;;7.28;100.00
63006;BME280;53704;52.532;6.426;2023-02-03T07:30:14;102155.94;;;7.24;100.00
63006;BME280;53704;52.532;6.426;2023-02-03T07:32:40;102136.13;;;7.27;100.00
63006;BME280;53704;52.532;6.426;2023-02-03T07:35:05;102160.97;;;7.29;100.00
63006;BME280;53704;52.532;6.426;2023-02-03T07:37:32;102152.09;;;7.28;100.00
63006;BME280;53704;52.532;6.426;2023-02-03T07:39:58;102181.97;;;7.35;100.00
63006;BME280;53704;52.532;6.426;2023-02-03T07:42:23;102180.91;;;7.37;100.00
63006;BME280;53704;52.532;6.426;2023-02-03T07:44:48;102181.75;;;7.38;100.00
63006;BME280;53704;52.532;6.426;2023-02-03T07:47:14;102178.34;;;7.36;100.00
63006;BME280;53704;52.532;6.426;2023-02-03T07:49:43;102178.13;;;7.39;100.00
63006;BME280;53704;52.532;6.426;2023-02-03T07:52:08;102180.06;;;7.37;100.00
63006;BME280;53704;52.532;6.426;2023-02-03T07:54:33;102191.19;;;7.43;100.00
63006;BME280;53704;52.532;6.426;2023-02-03T07:56:59;102198.44;;;7.41;100.00
63006;BME280;53704;52.532;6.426;2023-02-03T07:59:24;102187.41;;;7.46;100.00
63006;BME280;53704;52.532;6.426;2023-02-03T08:01:49;102185.38;;;7.50;100.00
63006;BME280;53704;52.532;6.426;2023-02-03T08:04:15;102173.56;;;7.52;100.00
63006;BME280;53704;52.532;6.426;2023-02-03T08:06:42;102196.50;;;7.56;100.00
63006;BME280;53704;52.532;6.426;2023-02-03T08:09:08;102181.38;;;7.55;100.00
63006;BME280;53704;52.532;6.426;2023-02-03T08:11:33;102201.88;;;7.56;100.00
63006;BME280;53704;52.532;6.426;2023-02-03T08:13:59;102187.75;;;7.54;100.00
63006;BME280;53704;52.532;6.426;2023-02-03T08:16:24;102182.00;;;7.59;100.00
63006;BME280;53704;52.532;6.426;2023-02-03T08:18:49;102197.25;;;7.58;100.00
63006;BME280;53704;52.532;6.426;2023-02-03T08:21:15;102197.25;;;7.58;100.00
63006;BME280;53704;52.532;6.426;2023-02-03T08:23:40;102194.06;;;7.53;100.00
63006;BME280;53704;52.532;6.426;2023-02-03T08:26:09;102185.78;;;7.56;100.00
63006;BME280;53704;52.532;6.426;2023-02-03T08:28:34;102194.34;;;7.61;100.00
63006;BME280;53704;52.532;6.426;2023-02-03T08:30:59;102206.91;;;7.61;100.00
63006;BME280;53704;52.532;6.426;2023-02-03T08:33:25;102207.63;;;7.63;100.00
63006;BME280;53704;52.532;6.426;2023-02-03T08:35:52;102211.16;;;7.64;100.00
63006;BME280;53704;52.532;6.426;2023-02-03T08:38:18;102214.84;;;7.63;100.00
63006;BME280;53704;52.532;6.426;2023-02-03T08:40:45;102224.34;;;7.67;100.00
63006;BME280;53704;52.532;6.426;2023-02-03T08:43:11;102221.56;;;7.68;100.00
63006;BME280;53704;52.532;6.426;2023-02-03T08:45:38;102214.50;;;7.67;100.00
63006;BME280;53704;52.532;6.426;2023-02-03T08:48:04;102215.56;;;7.65;100.00
63006;BME280;53704;52.532;6.426;2023-02-03T08:50:29;102205.06;;;7.61;100.00
63006;BME280;53704;52.532;6.426;2023-02-03T08:52:55;102208.38;;;7.65;100.00
63006;BME280;53704;52.532;6.426;2023-02-03T08:55:20;102215.47;;;7.66;100.00
63006;BME280;53704;52.532;6.426;2023-02-03T08:57:46;102197.53;;;7.67;100.00
63006;BME280;53704;52.532;6.426;2023-02-03T09:00:11;102204.63;;;7.68;100.00
63006;BME280;53704;52.532;6.426;2023-02-03T09:02:37;102202.69;;;7.70;100.00
63006;BME280;53704;52.532;6.426;2023-02-03T09:05:02;102206.34;;;7.69;100.00
63006;BME280;53704;52.532;6.426;2023-02-03T09:07:28;102220.50;;;7.71;100.00
63006;BME280;53704;52.532;6.426;2023-02-03T09:09:53;102225.63;;;7.74;100.00
63006;BME280;53704;52.532;6.426;2023-02-03T09:12:19;102227.34;;;7.75;100.00
63006;BME280;53704;52.532;6.426;2023-02-03T09:14:44;102232.72;;;7.75;100.00
63006;BME280;53704;52.532;6.426;2023-02-03T09:17:10;102229.16;;;7.74;100.00
63006;BME280;53704;52.532;6.426;2023-02-03T09:19:36;102220.06;;;7.77;100.00
63006;BME280;53704;52.532;6.426;2023-02-03T09:22:03;102222.94;;;7.74;100.00
63006;BME280;53704;52.532;6.426;2023-02-03T09:24:28;102243.97;;;7.80;100.00
63006;BME280;53704;52.532;6.426;2023-02-03T09:26:55;102241.38;;;7.78;100.00
63006;BME280;53704;52.532;6.426;2023-02-03T09:29:21;102245.91;;;7.78;100.00
63006;BME280;53704;52.532;6.426;2023-02-03T09:31:48;102246.53;;;7.82;100.00
63006;BME280;53704;52.532;6.426;2023-02-03T09:34:16;102250.91;;;7.83;100.00
63006;BME280;53704;52.532;6.426;2023-02-03T09:36:42;102264.41;;;7.81;100.00
63006;BME280;53704;52.532;6.426;2023-02-03T09:39:07;102264.41;;;7.81;100.00
63006;BME280;53704;52.532;6.426;2023-02-03T09:44:33;102254.69;;;7.80;100.00
63006;BME280;53704;52.532;6.426;2023-02-03T09:47:09;102261.84;;;7.79;100.00
63006;BME280;53704;52.532;6.426;2023-02-03T09:49:46;102266.25;;;7.81;100.00
63006;BME280;53704;52.532;6.426;2023-02-03T09:52:16;102270.78;;;7.80;100.00
63006;BME280;53704;52.532;6.426;2023-02-03T09:57:26;102273.66;;;7.77;100.00
63006;BME280;53704;52.532;6.426;2023-02-03T09:59:55;102269.78;;;7.81;100.00
63006;BME280;53704;52.532;6.426;2023-02-03T10:08:14;102297.38;;;7.83;100.00
63006;BME280;53704;52.532;6.426;2023-02-03T10:10:53;102292.31;;;7.78;100.00
63006;BME280;53704;52.532;6.426;2023-02-03T10:13:39;102289.75;;;7.77;100.00
63006;BME280;53704;52.532;6.426;2023-02-03T10:16:32;102296.94;;;7.76;100.00
63006;BME280;53704;52.532;6.426;2023-02-03T10:19:16;102296.28;;;7.73;100.00
63006;BME280;53704;52.532;6.426;2023-02-03T10:21:58;102304.31;;;7.73;100.00
63006;BME280;53704;52.532;6.426;2023-02-03T10:24:44;102313.16;;;7.75;100.00
63006;BME280;53704;52.532;6.426;2023-02-03T10:27:18;102300.25;;;7.80;100.00
63006;BME280;53704;52.532;6.426;2023-02-03T10:32:25;102325.44;;;7.77;100.00
63006;BME280;53704;52.532;6.426;2023-02-03T10:34:52;102330.91;;;7.76;100.00
63006;BME280;53704;52.532;6.426;2023-02-03T10:37:22;102320.41;;;7.73;100.00
63006;BME280;53704;52.532;6.426;2023-02-03T10:39:51;102329.84;;;7.78;100.00
63006;BME280;53704;52.532;6.426;2023-02-03T10:42:17;102339.50;;;7.81;100.00
63006;BME280;53704;52.532;6.426;2023-02-03T10:45:13;102349.47;;;7.79;100.00
63006;BME280;53704;52.532;6.426;2023-02-03T10:47:41;102352.59;;;7.73;100.00
63006;BME280;53704;52.532;6.426;2023-02-03T10:52:40;102365.88;;;7.74;100.00
63006;BME280;53704;52.532;6.426;2023-02-03T10:57:52;102354.31;;;7.74;100.00
63006;BME280;53704;52.532;6.426;2023-02-03T11:02:54;102375.53;;;7.77;100.00
63006;BME280;53704;52.532;6.426;2023-02-03T11:05:22;102374.44;;;7.79;100.00
63006;BME280;53704;52.532;6.426;2023-02-03T11:07:50;102362.56;;;7.84;100.00
63006;BME280;53704;52.532;6.426;2023-02-03T11:10:36;102369.75;;;7.83;100.00
63006;BME280;53704;52.532;6.426;2023-02-03T11:13:23;102373.59;;;7.92;100.00
63006;BME280;53704;52.532;6.426;2023-02-03T11:18:50;102366.09;;;7.97;100.00
63006;BME280;53704;52.532;6.426;2023-02-03T11:21:29;102371.25;;;8.00;100.00
63006;BME280;53704;52.532;6.426;2023-02-03T11:24:19;102380.13;;;8.01;100.00
63006;BME280;53704;52.532;6.426;2023-02-03T11:26:49;102386.13;;;8.04;100.00
63006;BME280;53704;52.532;6.426;2023-02-03T11:29:23;102379.16;;;8.02;100.00
63006;BME280;53704;52.532;6.426;2023-02-03T11:31:52;102389.78;;;8.03;100.00
63006;BME280;53704;52.532;6.426;2023-02-03T11:34:21;102390.66;;;8.04;100.00
63006;BME280;53704;52.532;6.426;2023-02-03T11:36:48;102403.97;;;8.05;100.00
63006;BME280;53704;52.532;6.426;2023-02-03T11:39:25;102404.81;;;8.06;100.00
63006;BME280;53704;52.532;6.426;2023-02-03T11:41:52;102396.53;;;8.09;100.00
63006;BME280;53704;52.532;6.426;2023-02-03T11:44:21;102405.88;;;8.03;100.00
63006;BME280;53704;52.532;6.426;2023-02-03T11:46:54;102395.47;;;8.11;100.00
63006;BME280;53704;52.532;6.426;2023-02-03T11:52:14;102397.50;;;8.08;100.00
63006;BME280;53704;52.532;6.426;2023-02-03T11:57:38;102402.53;;;8.12;100.00
63006;BME280;53704;52.532;6.426;2023-02-03T12:11:31;102419.81;;;8.21;100.00
63006;BME280;53704;52.532;6.426;2023-02-03T12:19:43;102425.28;;;8.20;100.00
63006;BME280;53704;52.532;6.426;2023-02-03T12:31:03;102429.81;;;7.93;100.00
63006;BME280;53704;52.532;6.426;2023-02-03T12:33:37;102435.28;;;7.92;100.00
63006;BME280;53704;52.532;6.426;2023-02-03T12:36:09;102437.84;;;7.93;100.00
63006;BME280;53704;52.532;6.426;2023-02-03T12:38:43;102436.25;;;7.91;100.00
63006;BME280;53704;52.532;6.426;2023-02-03T12:41:19;102446.09;;;7.90;100.00
63006;BME280;53704;52.532;6.426;2023-02-03T12:43:49;102436.25;;;7.91;100.00
63006;BME280;53704;52.532;6.426;2023-02-03T12:48:58;102430.22;;;7.87;100.00
63006;BME280;53704;52.532;6.426;2023-02-03T12:51:39;102424.44;;;7.93;100.00
63006;BME280;53704;52.532;6.426;2023-02-03T12:56:46;102432.91;;;7.87;100.00
63006;BME280;53704;52.532;6.426;2023-02-03T12:59:21;102442.25;;;7.94;100.00
63006;BME280;53704;52.532;6.426;2023-02-03T13:02:13;102437.22;;;7.90;100.00
63006;BME280;53704;52.532;6.426;2023-02-03T13:04:56;102434.41;;;7.78;100.00
63006;BME280;53704;52.532;6.426;2023-02-03T13:07:50;102450.50;;;7.78;100.00
63006;BME280;53704;52.532;6.426;2023-02-03T13:10:20;102451.69;;;7.87;100.00
63006;BME280;53704;52.532;6.426;2023-02-03T13:12:53;102453.28;;;7.77;100.00
63006;BME280;53704;52.532;6.426;2023-02-03T13:15:26;102450.72;;;7.75;100.00
63006;BME280;53704;52.532;6.426;2023-02-03T13:18:28;102455.22;;;7.75;100.00
63006;BME280;53704;52.532;6.426;2023-02-03T13:20:54;102451.78;;;7.73;100.00
63006;BME280;53704;52.532;6.426;2023-02-03T13:23:21;102455.34;;;7.73;100.00
63006;BME280;53704;52.532;6.426;2023-02-03T13:25:50;102475.47;;;7.79;100.00
63006;BME280;53704;52.532;6.426;2023-02-03T13:28:42;102471.72;;;7.69;100.00
63006;BME280;53704;52.532;6.426;2023-02-03T13:31:16;102467.00;;;7.72;100.00
63006;BME280;53704;52.532;6.426;2023-02-03T13:36:45;102460.59;;;7.75;100.00
63006;BME280;53704;52.532;6.426;2023-02-03T13:39:24;102462.63;;;7.84;100.00
63006;BME280;53704;52.532;6.426;2023-02-03T13:41:55;102464.75;;;7.79;100.00
63006;BME280;53704;52.532;6.426;2023-02-03T13:44:32;102470.44;;;7.74;100.00
63006;BME280;53704;52.532;6.426;2023-02-03T13:46:59;102463.47;;;7.72;100.00
63006;BME280;53704;52.532;6.426;2023-02-03T13:49:32;102472.78;;;7.66;100.00
63006;BME280;53704;52.532;6.426;2023-02-03T13:51:58;102479.19;;;7.64;100.00
63006;BME280;53704;52.532;6.426;2023-02-03T13:54:33;102480.19;;;7.63;100.00
63006;BME280;53704;52.532;6.426;2023-02-03T13:57:02;102481.69;;;7.67;100.00
63006;BME280;53704;52.532;6.426;2023-02-03T13:59:41;102479.75;;;7.56;100.00
63006;BME280;53704;52.532;6.426;2023-02-03T14:07:39;102495.38;;;7.62;100.00
63006;BME280;53704;52.532;6.426;2023-02-03T14:23:37;102527.16;;;7.41;100.00
63006;BME280;53704;52.532;6.426;2023-02-03T14:25:42;102517.75;;;7.35;100.00
63006;BME280;53704;52.532;6.426;2023-02-03T14:28:41;102520.97;;;7.40;100.00
63006;BME280;53704;52.532;6.426;2023-02-03T14:31:30;102513.53;;;7.31;100.00
63006;BME280;53704;52.532;6.426;2023-02-03T14:34:04;102515.81;;;7.37;100.00
63006;BME280;53704;52.532;6.426;2023-02-03T14:39:04;102529.50;;;7.33;100.00
63006;BME280;53704;52.532;6.426;2023-02-03T14:44:34;102524.03;;;7.34;100.00
63006;BME280;53704;52.532;6.426;2023-02-03T14:47:16;102532.59;;;7.27;100.00
63006;BME280;53704;52.532;6.426;2023-02-03T15:00:03;102533.28;;;7.43;100.00
63006;BME280;53704;52.532;6.426;2023-02-03T15:02:31;102542.50;;;7.39;100.00
63006;BME280;53704;52.532;6.426;2023-02-03T15:07:39;102547.47;;;7.45;100.00
63006;BME280;53704;52.532;6.426;2023-02-03T15:10:21;102534.16;;;7.43;100.00
63006;BME280;53704;52.532;6.426;2023-02-03T15:12:49;102531.78;;;7.39;100.00